createdAt,value
2019-03-22T00:28:26.733Z,60.17
2019-03-22T00:31:00.103Z,58.37
2019-03-22T00:33:33.486Z,70.33
2019-03-22T00:36:08.962Z,69.33
2019-03-22T00:38:43.372Z,87.87
2019-03-22T00:41:17.201Z,71.83
2019-03-22T00:43:50.513Z,75.23
2019-03-22T00:46:24.020Z,84.43
2019-03-22T00:48:57.260Z,107.30
2019-03-22T00:51:30.656Z,85.57
2019-03-22T00:54:03.943Z,70.87
2019-03-22T00:56:37.356Z,70.57
2019-03-22T00:59:12.188Z,66.23
2019-03-22T01:01:46.619Z,69.83
2019-03-22T01:04:19.816Z,69.00
2019-03-22T01:06:53.116Z,73.73
2019-03-22T01:09:26.493Z,67.23
2019-03-22T01:11:59.929Z,70.47
2019-03-22T01:14:34.461Z,72.13
2019-03-22T01:17:07.792Z,69.53
2019-03-22T01:19:41.144Z,68.50
2019-03-22T01:22:14.533Z,68.83
2019-03-22T01:24:47.932Z,71.13
2019-03-22T01:37:20.195Z,67.93
2019-03-22T01:39:58.921Z,65.00
2019-03-22T01:42:32.283Z,63.87
2019-03-22T01:45:15.335Z,68.83
2019-03-22T01:47:48.601Z,64.23
2019-03-22T02:03:25.921Z,67.73
2019-03-22T02:05:59.345Z,70.90
2019-03-22T02:08:32.712Z,69.97
2019-03-22T02:11:06.122Z,70.57
2019-03-22T02:13:39.407Z,73.67
2019-03-22T02:16:14.018Z,70.97
2019-03-22T02:18:47.438Z,73.30
2019-03-22T02:21:20.874Z,68.23
2019-03-22T02:23:54.322Z,73.77
2019-03-22T02:26:27.753Z,70.53
2019-03-22T02:29:01.101Z,70.30
2019-03-22T02:31:34.503Z,71.13
2019-03-22T02:34:09.059Z,72.03
2019-03-22T02:36:45.367Z,74.90
2019-03-22T02:39:19.729Z,71.13
2019-03-22T02:41:53.021Z,73.80
2019-03-22T02:48:11.642Z,78.47
2019-03-22T02:50:44.934Z,79.57
2019-03-22T02:59:51.617Z,69.87
2019-03-22T03:02:24.983Z,67.97
2019-03-22T03:04:58.368Z,68.37
2019-03-22T03:07:34.083Z,73.87
2019-03-22T03:10:11.435Z,75.50
2019-03-22T03:12:45.675Z,73.20
2019-03-22T03:15:21.954Z,71.70
2019-03-22T03:17:55.262Z,72.40
2019-03-22T03:23:31.994Z,67.67
2019-03-22T03:26:05.373Z,68.40
2019-03-22T03:28:38.664Z,70.53
2019-03-22T03:31:12.079Z,70.80
2019-03-22T03:33:45.535Z,70.07
2019-03-22T03:36:18.985Z,69.33
2019-03-22T03:39:08.538Z,74.27
2019-03-22T03:41:41.902Z,72.90
2019-03-22T03:44:15.363Z,70.67
2019-03-22T03:46:49.763Z,72.83
2019-03-22T03:49:23.198Z,69.17
2019-03-22T03:51:56.594Z,65.53
2019-03-22T03:54:29.943Z,62.27
2019-03-22T03:57:03.347Z,64.33
2019-03-22T03:59:36.706Z,62.23
2019-03-22T04:05:14.581Z,57.57
2019-03-22T04:07:47.937Z,55.13
2019-03-22T04:10:21.313Z,56.30
2019-03-22T04:12:54.702Z,55.80
2019-03-22T04:15:28.070Z,43.10
2019-03-22T04:18:02.626Z,49.17
2019-03-22T04:20:35.947Z,51.23
2019-03-22T04:23:09.276Z,53.60
2019-03-22T04:25:42.610Z,51.20
2019-03-22T04:28:17.465Z,50.77
2019-03-22T04:37:44.675Z,46.92
2019-03-22T04:40:30.246Z,42.85
2019-03-22T04:43:03.810Z,45.48
2019-03-22T04:45:40.496Z,45.00
2019-03-22T04:48:30.270Z,41.02
2019-03-22T04:51:07.542Z,46.45
2019-03-22T04:54:07.735Z,41.97
2019-03-22T04:56:42.510Z,46.13
2019-03-22T04:59:22.034Z,39.95
2019-03-22T05:01:58.970Z,47.20
2019-03-22T05:04:33.264Z,47.00
2019-03-22T05:07:07.237Z,46.80
2019-03-22T05:15:58.973Z,47.25
2019-03-22T05:18:25.823Z,46.95
2019-03-22T05:18:34.693Z,46.28
2019-03-22T05:21:11.241Z,45.60
2019-03-22T05:23:45.936Z,47.25
2019-03-22T05:29:49.212Z,46.02
2019-03-22T05:32:22.685Z,42.53
2019-03-22T05:34:56.129Z,49.90
2019-03-22T05:37:29.388Z,42.38
2019-03-22T05:40:04.471Z,41.58
2019-03-22T05:42:37.836Z,44.10
2019-03-22T05:45:11.254Z,41.20
2019-03-22T05:50:52.115Z,41.25
2019-03-22T05:53:25.472Z,44.50
2019-03-22T05:55:58.833Z,45.40
2019-03-22T05:58:32.955Z,45.00
2019-03-22T06:01:06.376Z,43.40
2019-03-22T06:03:39.651Z,46.95
2019-03-22T06:06:13.041Z,48.60
2019-03-22T06:08:46.373Z,46.83
2019-03-22T06:11:21.951Z,50.08
2019-03-22T06:13:59.412Z,50.58
2019-03-22T06:16:33.419Z,58.38
2019-03-22T06:19:08.684Z,55.50
2019-03-22T06:21:42.123Z,49.13
2019-03-22T06:24:15.544Z,49.75
2019-03-22T06:26:48.984Z,49.30
2019-03-22T06:29:22.383Z,49.15
2019-03-22T06:31:55.696Z,64.85
2019-03-22T06:34:29.074Z,55.78
2019-03-22T06:37:03.246Z,46.13
2019-03-22T06:39:46.684Z,42.43
2019-03-22T06:42:20.054Z,46.48
2019-03-22T06:44:53.414Z,49.25
2019-03-22T06:47:27.934Z,45.73
2019-03-22T06:50:02.865Z,46.13
2019-03-22T06:52:36.583Z,45.25
2019-03-22T06:55:10.254Z,24.23
2019-03-22T06:57:47.719Z,35.68
2019-03-22T07:00:22.052Z,44.98
2019-03-22T07:02:55.459Z,44.73
2019-03-22T07:05:28.805Z,46.10
2019-03-22T07:08:02.158Z,47.35
2019-03-22T07:10:35.568Z,45.85
2019-03-22T07:13:08.771Z,45.73
2019-03-22T07:15:42.082Z,47.08
2019-03-22T07:18:15.479Z,46.25
2019-03-22T07:20:48.872Z,45.25
2019-03-22T07:23:22.161Z,45.28
2019-03-22T07:25:55.627Z,51.45
2019-03-22T07:28:28.927Z,48.65
2019-03-22T07:31:11.350Z,50.65
2019-03-22T07:33:46.435Z,51.13
2019-03-22T07:36:21.094Z,49.60
2019-03-22T07:38:54.452Z,48.52
2019-03-22T07:44:07.892Z,46.70
2019-03-22T07:46:41.245Z,52.95
2019-03-22T07:49:15.502Z,54.20
2019-03-22T07:51:49.775Z,54.35
2019-03-22T07:54:23.226Z,44.95
2019-03-22T07:56:59.481Z,52.90
2019-03-22T07:59:32.870Z,48.05
2019-03-22T08:02:06.265Z,50.73
2019-03-22T08:04:39.570Z,50.67
2019-03-22T08:07:13.131Z,50.98
2019-03-22T08:09:46.707Z,33.75
2019-03-22T08:12:20.189Z,52.98
2019-03-22T08:14:55.034Z,47.75
2019-03-22T08:17:28.424Z,57.30
2019-03-22T08:20:01.722Z,52.90
2019-03-22T08:22:35.994Z,53.70
2019-03-22T08:25:09.325Z,52.00
2019-03-22T08:27:42.708Z,60.40
2019-03-22T08:30:16.211Z,61.35
2019-03-22T08:32:50.597Z,64.37
2019-03-22T08:35:24.072Z,57.67
2019-03-22T08:37:57.514Z,43.95
2019-03-22T08:40:30.930Z,48.28
2019-03-22T08:43:04.279Z,49.50
2019-03-22T08:45:37.521Z,37.15
2019-03-22T08:48:10.963Z,46.90
2019-03-22T08:50:44.349Z,44.05
2019-03-22T08:55:57.655Z,44.50
2019-03-22T08:58:32.294Z,43.23
2019-03-22T09:03:57.064Z,43.33
2019-03-22T09:06:30.572Z,47.73
2019-03-22T09:09:06.118Z,57.98
2019-03-22T09:11:42.783Z,45.43
2019-03-22T09:14:16.246Z,52.95
2019-03-22T09:16:50.667Z,53.28
2019-03-22T09:19:24.376Z,46.70
2019-03-22T09:21:59.615Z,44.67
2019-03-22T09:24:39.036Z,40.05
2019-03-22T09:29:49.361Z,39.53
2019-03-22T09:32:24.150Z,45.08
2019-03-22T09:34:59.773Z,51.90
2019-03-22T09:37:32.591Z,57.40
2019-03-22T09:40:10.906Z,61.55
2019-03-22T09:42:44.352Z,46.30
2019-03-22T09:45:17.745Z,37.30
2019-03-22T09:47:51.182Z,42.75
2019-03-22T09:50:24.617Z,38.23
2019-03-22T09:52:57.994Z,36.60
2019-03-22T09:55:31.417Z,38.23
2019-03-22T09:58:05.041Z,41.50
2019-03-22T10:00:38.686Z,39.00
2019-03-22T10:03:12.190Z,36.83
2019-03-22T10:05:59.910Z,110.83
2019-03-22T10:08:34.379Z,79.77
2019-03-22T10:11:07.866Z,106.15
2019-03-22T10:13:41.392Z,97.90
2019-03-22T10:19:07.596Z,33.88
2019-03-22T10:21:41.970Z,63.02
2019-03-22T10:24:15.482Z,40.25
2019-03-22T10:26:49.005Z,39.05
2019-03-22T10:29:24.162Z,34.95
2019-03-22T10:31:57.439Z,30.72
2019-03-22T10:34:41.709Z,32.78
2019-03-22T10:37:15.079Z,34.83
2019-03-22T10:39:51.546Z,31.97
2019-03-22T10:42:25.009Z,30.32
2019-03-22T10:44:58.280Z,30.12
2019-03-22T10:47:31.643Z,28.77
2019-03-22T10:50:08.139Z,31.20
2019-03-22T10:52:41.600Z,30.60
2019-03-22T10:55:29.329Z,28.10
2019-03-22T10:57:50.162Z,27.07
2019-03-22T11:00:23.612Z,27.62
2019-03-22T11:02:58.492Z,29.95
2019-03-22T11:05:31.833Z,29.40
2019-03-22T11:08:05.335Z,28.87
2019-03-22T11:10:38.806Z,30.80
2019-03-22T11:13:32.582Z,30.40
2019-03-22T11:16:11.424Z,31.75
2019-03-22T11:18:44.836Z,28.75
2019-03-22T11:21:18.343Z,29.18
2019-03-22T11:23:51.705Z,31.95
2019-03-22T11:26:26.327Z,33.18
2019-03-22T11:28:59.734Z,28.23
2019-03-22T11:31:39.795Z,27.05
2019-03-22T11:34:08.193Z,27.30
2019-03-22T11:36:41.642Z,51.53
2019-03-22T11:39:16.031Z,32.40
2019-03-22T11:41:49.609Z,27.87
2019-03-22T11:44:23.046Z,32.40
2019-03-22T11:46:56.456Z,29.10
2019-03-22T11:52:10.674Z,48.17
2019-03-22T11:54:44.015Z,30.82
2019-03-22T11:57:17.459Z,30.62
2019-03-22T11:59:50.842Z,31.15
2019-03-22T12:02:24.464Z,36.13
2019-03-22T12:04:57.679Z,29.87
2019-03-22T12:07:31.115Z,35.38
2019-03-22T12:10:07.997Z,33.33
2019-03-22T12:12:41.404Z,34.03
2019-03-22T12:15:21.942Z,36.93
2019-03-22T12:17:55.331Z,38.42
2019-03-22T12:20:28.672Z,32.23
2019-03-22T12:23:02.064Z,32.80
2019-03-22T12:25:35.636Z,31.70
2019-03-22T12:28:09.068Z,49.18
2019-03-22T12:30:42.463Z,33.30
2019-03-22T12:33:15.920Z,33.35
2019-03-22T12:35:49.596Z,34.85
2019-03-22T12:38:22.954Z,36.45
2019-03-22T12:40:56.378Z,33.20
2019-03-22T12:43:30.823Z,31.37
2019-03-22T12:46:04.294Z,35.10
2019-03-22T12:48:37.676Z,31.42
2019-03-22T12:51:11.187Z,28.92
2019-03-22T12:53:45.528Z,29.57
2019-03-22T12:56:19.439Z,28.27
2019-03-22T12:58:53.003Z,27.60
2019-03-22T13:01:26.490Z,26.77
2019-03-22T13:03:59.965Z,22.93
2019-03-22T13:06:33.422Z,22.77
2019-03-22T13:09:09.281Z,22.13
2019-03-22T13:11:51.185Z,21.73
2019-03-22T13:14:24.678Z,23.62
2019-03-22T13:16:58.083Z,22.95
2019-03-22T13:19:32.583Z,21.25
2019-03-22T13:22:06.019Z,21.87
2019-03-22T13:27:49.254Z,25.80
2019-03-22T13:30:35.439Z,24.00
2019-03-22T13:33:08.855Z,24.72
2019-03-22T13:35:42.313Z,22.50
2019-03-22T13:38:15.718Z,27.62
2019-03-22T13:40:49.150Z,28.50
2019-03-22T13:43:22.982Z,28.27
2019-03-22T13:45:56.440Z,28.77
2019-03-22T13:48:29.803Z,32.70
2019-03-22T13:51:04.360Z,35.10
2019-03-22T13:53:37.789Z,35.08
2019-03-22T13:56:11.190Z,30.65
2019-03-22T13:58:44.600Z,28.50
2019-03-22T14:01:18.018Z,29.42
2019-03-22T14:03:51.502Z,27.58
2019-03-22T14:06:24.894Z,30.88
2019-03-22T14:08:58.383Z,25.30
2019-03-22T14:11:31.792Z,28.17
2019-03-22T14:14:05.185Z,30.00
2019-03-22T14:16:38.613Z,28.17
2019-03-22T14:19:19.854Z,34.30
2019-03-22T14:21:57.184Z,28.70
2019-03-22T14:24:30.614Z,34.30
2019-03-22T14:27:04.484Z,23.87
2019-03-22T14:29:37.907Z,23.27
2019-03-22T14:32:11.346Z,24.05
2019-03-22T14:34:44.775Z,22.93
2019-03-22T14:37:26.035Z,24.40
2019-03-22T14:39:59.855Z,23.75
2019-03-22T14:42:33.221Z,20.97
2019-03-22T14:45:09.863Z,22.60
2019-03-22T14:47:43.324Z,21.70
2019-03-22T14:50:16.726Z,23.05
2019-03-22T14:52:57.822Z,21.02
2019-03-22T14:55:32.102Z,21.62
2019-03-22T14:58:05.381Z,23.87
2019-03-22T15:00:38.801Z,24.23
2019-03-22T15:03:28.088Z,19.12
2019-03-22T15:06:08.395Z,18.95
2019-03-22T15:08:41.817Z,20.82
2019-03-22T15:11:15.614Z,17.42
2019-03-22T15:13:50.731Z,19.15
2019-03-22T15:16:37.486Z,18.48
2019-03-22T15:19:23.134Z,20.72
2019-03-22T15:22:06.703Z,17.32
2019-03-22T15:24:41.684Z,18.40
2019-03-22T15:27:15.788Z,16.75
2019-03-22T15:29:48.928Z,17.02
2019-03-22T15:32:23.894Z,16.07
2019-03-22T15:35:14.947Z,16.07
2019-03-22T15:38:05.967Z,19.95
2019-03-22T15:40:39.281Z,17.52
2019-03-22T15:43:14.446Z,17.35
2019-03-22T15:45:48.202Z,18.07
2019-03-22T15:48:21.589Z,17.02
2019-03-22T15:50:55.242Z,19.05
2019-03-22T15:53:31.285Z,15.75
2019-03-22T15:56:05.745Z,18.90
2019-03-22T15:58:39.135Z,17.50
2019-03-22T16:01:13.295Z,22.20
2019-03-22T16:03:53.216Z,25.75
2019-03-22T16:06:27.426Z,21.82
2019-03-22T16:09:00.931Z,20.12
2019-03-22T16:11:41.012Z,43.63
2019-03-22T16:14:14.770Z,17.92
2019-03-22T16:16:51.869Z,23.45
2019-03-22T16:19:25.312Z,21.35
2019-03-22T16:21:58.722Z,23.65
2019-03-22T16:24:32.114Z,22.50
2019-03-22T16:27:06.001Z,21.50
2019-03-22T16:29:39.404Z,21.00
2019-03-22T16:32:13.105Z,24.92
2019-03-22T16:34:54.531Z,23.73
2019-03-22T16:37:28.094Z,22.80
2019-03-22T16:40:02.018Z,23.05
2019-03-22T16:42:35.463Z,23.07
2019-03-22T16:45:12.081Z,27.90
2019-03-22T16:47:47.110Z,24.52
2019-03-22T16:50:26.943Z,27.40
2019-03-22T16:53:00.539Z,27.32
2019-03-22T16:55:38.545Z,29.12
2019-03-22T16:58:14.098Z,27.93
2019-03-22T17:00:49.780Z,26.35
2019-03-22T17:03:24.515Z,24.20
2019-03-22T17:06:00.990Z,26.12
2019-03-22T17:08:38.753Z,25.15
2019-03-22T17:11:15.795Z,32.13
2019-03-22T17:13:49.930Z,27.22
2019-03-22T17:16:23.436Z,24.77
2019-03-22T17:18:57.664Z,27.95
2019-03-22T17:21:31.214Z,26.30
2019-03-22T17:24:06.063Z,23.45
2019-03-22T17:26:41.517Z,22.85
2019-03-22T17:29:16.973Z,23.20
2019-03-22T17:31:53.563Z,25.25
2019-03-22T17:41:00.275Z,27.10
2019-03-22T17:43:33.645Z,26.97
2019-03-22T17:46:07.115Z,26.50
2019-03-22T17:48:54.460Z,26.00
2019-03-22T17:51:27.855Z,25.37
2019-03-22T17:54:06.292Z,31.93
2019-03-22T17:56:40.208Z,28.37
2019-03-22T17:59:19.680Z,29.23
2019-03-22T18:01:55.503Z,30.47
2019-03-22T18:04:31.086Z,36.33
2019-03-22T18:07:05.077Z,34.27
2019-03-22T18:09:40.216Z,33.43
2019-03-22T18:12:13.846Z,36.33
2019-03-22T18:14:48.914Z,36.37
2019-03-22T18:17:22.794Z,37.83
2019-03-22T18:19:56.245Z,39.87
2019-03-22T18:22:31.111Z,42.77
2019-03-22T18:25:08.983Z,42.80
2019-03-22T18:27:43.763Z,50.43
2019-03-22T18:30:18.513Z,47.43
2019-03-22T18:32:52.935Z,49.07
2019-03-22T18:35:26.382Z,44.23
2019-03-22T18:38:01.463Z,44.43
2019-03-22T18:40:35.167Z,46.37
2019-03-22T18:43:08.548Z,44.50
2019-03-22T18:45:43.420Z,45.50
2019-03-22T18:48:17.666Z,43.93
2019-03-22T18:50:57.075Z,42.53
2019-03-22T18:53:30.256Z,44.13
2019-03-22T18:56:04.517Z,49.03
2019-03-22T18:58:38.365Z,109.37
2019-03-22T19:01:12.398Z,128.97
2019-03-22T19:03:47.125Z,50.73
2019-03-22T19:06:21.918Z,66.47
2019-03-22T19:08:56.215Z,80.00
2019-03-22T19:11:30.662Z,68.07
2019-03-22T19:14:06.212Z,146.70
2019-03-22T19:16:40.606Z,60.90
2019-03-22T19:19:15.666Z,50.30
2019-03-22T19:21:49.398Z,47.93
2019-03-22T19:24:23.046Z,47.40
2019-03-22T19:26:56.798Z,47.17
2019-03-22T19:29:30.185Z,47.27
2019-03-22T19:32:13.154Z,43.90
2019-03-22T19:34:40.614Z,47.93
2019-03-22T19:37:14.997Z,40.83
2019-03-22T19:39:49.292Z,42.20
2019-03-22T19:42:23.440Z,40.67
2019-03-22T19:44:56.773Z,37.70
2019-03-22T19:47:30.294Z,40.20
2019-03-22T19:50:04.928Z,41.00
2019-03-22T19:52:38.427Z,42.57
2019-03-22T19:55:13.265Z,44.00
2019-03-22T19:57:51.275Z,40.03
2019-03-22T20:00:24.644Z,42.83
2019-03-22T20:02:58.100Z,41.83
2019-03-22T20:05:35.078Z,42.83
2019-03-22T20:08:13.663Z,42.60
2019-03-22T20:10:45.931Z,40.80
2019-03-22T20:13:19.394Z,39.87
2019-03-22T20:15:53.828Z,40.53
2019-03-22T20:18:27.256Z,62.50
2019-03-22T20:21:00.642Z,65.37
2019-03-22T20:23:34.032Z,76.07
2019-03-22T20:26:07.395Z,99.10
2019-03-22T20:28:46.940Z,83.60
2019-03-22T20:31:20.219Z,134.27
2019-03-22T20:33:54.840Z,112.27
2019-03-22T20:36:29.285Z,123.40
2019-03-22T20:39:02.695Z,118.73
2019-03-22T20:41:36.979Z,133.67
2019-03-22T20:44:11.854Z,126.63
2019-03-22T20:46:45.238Z,113.87
2019-03-22T20:49:19.636Z,110.30
2019-03-22T20:51:53.946Z,100.20
2019-03-22T20:54:27.386Z,110.83
2019-03-22T20:57:00.727Z,104.33
2019-03-22T20:59:36.663Z,131.30
2019-03-22T21:02:11.039Z,135.30
2019-03-22T21:04:44.465Z,131.30
2019-03-22T21:07:17.838Z,160.43
2019-03-22T21:09:51.107Z,188.80
2019-03-22T21:12:27.804Z,294.40
2019-03-22T21:15:01.669Z,218.60
2019-03-22T21:17:34.939Z,261.07
2019-03-22T21:20:12.697Z,260.77
2019-03-22T21:22:46.214Z,297.10
2019-03-22T21:25:20.642Z,409.33
2019-03-22T21:27:53.898Z,721.97
2019-03-22T21:30:27.263Z,548.77
2019-03-22T21:33:01.643Z,464.73
2019-03-22T21:35:37.443Z,634.67
2019-03-22T21:38:11.355Z,589.87
2019-03-22T21:40:46.372Z,529.33
2019-03-22T21:43:21.958Z,465.60
2019-03-22T21:45:54.554Z,452.00
2019-03-22T21:48:27.953Z,469.60
2019-03-22T21:51:03.444Z,453.80
2019-03-22T21:53:42.205Z,477.50
2019-03-22T21:56:13.630Z,456.07
2019-03-22T21:58:46.937Z,423.10
2019-03-22T22:01:20.268Z,442.53
2019-03-22T22:03:56.646Z,550.60
2019-03-22T22:06:29.985Z,482.50
2019-03-22T22:09:04.224Z,350.57
2019-03-22T22:11:43.451Z,762.07
2019-03-22T22:14:18.400Z,575.07
2019-03-22T22:16:51.829Z,427.83
2019-03-22T22:19:25.306Z,435.07
2019-03-22T22:21:58.662Z,431.80
2019-03-22T22:24:32.073Z,346.57
2019-03-22T22:27:13.411Z,298.23
2019-03-22T22:29:40.532Z,284.43
2019-03-22T22:32:13.964Z,300.37
2019-03-22T22:34:47.315Z,323.43
2019-03-22T22:37:20.713Z,282.10
2019-03-22T22:39:54.033Z,144.80
2019-03-22T22:42:27.436Z,110.30
2019-03-22T22:45:00.844Z,145.37
2019-03-22T22:47:34.224Z,117.47
2019-03-22T22:50:12.614Z,102.07
2019-03-22T22:52:45.916Z,98.47
2019-03-22T22:55:20.120Z,90.40
2019-03-22T22:57:53.464Z,89.90
2019-03-22T23:00:28.685Z,117.13
2019-03-22T23:03:03.617Z,107.80
2019-03-22T23:05:37.018Z,130.90
2019-03-22T23:08:10.324Z,130.60
2019-03-22T23:10:43.712Z,105.47
2019-03-22T23:13:17.093Z,173.33
2019-03-22T23:15:50.503Z,155.70
2019-03-22T23:18:23.867Z,135.63
2019-03-22T23:20:57.275Z,131.63
2019-03-22T23:23:30.553Z,156.73
2019-03-22T23:26:03.966Z,134.73
2019-03-22T23:28:37.345Z,127.30
2019-03-22T23:31:10.758Z,143.67
2019-03-22T23:33:45.174Z,133.43
2019-03-22T23:36:20.790Z,164.17
2019-03-22T23:38:54.114Z,169.93
2019-03-22T23:41:27.540Z,140.67
2019-03-22T23:44:00.968Z,146.63
2019-03-22T23:46:34.490Z,142.43
2019-03-22T23:49:07.874Z,151.97
2019-03-22T23:51:41.230Z,151.73
